Time;durP1;ratioP1;P1;durP2;ratioP2;P2;SDS_P1;SDS_P2;PMS_P1;PMS_P2;Temp;Humidity;BMP_temperature;BMP_pressure;BME280_temperature;BME280_humidity;BME280_pressure;Samples;Min_cycle;Max_cycle;Signal;HPM_P1;HPM_P2
2023/12/30 00:00:58;;;;;;;;;;;;;;;6.68;100.00;100857.13;5048707;28;20376;-80
2023/12/30 00:03:24;;;;;;;;;;;;;;;6.65;100.00;100864.94;5051058;28;20318;-79
2023/12/30 00:05:49;;;;;;;;;;;;;;;6.64;100.00;100864.09;5061258;28;19967;-80
2023/12/30 00:08:14;;;;;;;;;;;;;;;6.68;100.00;100872.75;5054468;28;20407;-79
2023/12/30 00:10:39;;;;;;;;;;;;;;;6.69;100.00;100879.72;5056128;28;20376;-79
2023/12/30 00:13:05;;;;;;;;;;;;;;;6.68;100.00;100880.56;5036194;28;20434;-78
2023/12/30 00:15:30;;;;;;;;;;;;;;;6.68;100.00;100888.38;5054704;28;19999;-79
2023/12/30 00:17:55;;;;;;;;;;;;;;;6.62;100.00;100886.63;5040643;28;19921;-80
2023/12/30 00:20:21;;;;;;;;;;;;;;;6.61;100.00;100889.22;5039749;28;19952;-80
2023/12/30 00:22:46;;;;;;;;;;;;;;;6.55;100.00;100893.56;5035352;28;19917;-79
2023/12/30 00:25:12;;;;;;;;;;;;;;;6.51;100.00;100886.56;5048873;28;20022;-81
2023/12/30 00:27:42;;;;;;;;;;;;;;;6.52;100.00;100903.94;5055482;28;20386;-79
2023/12/30 00:30:08;;;;;;;;;;;;;;;6.45;100.00;100903.88;5068598;28;19927;-79
2023/12/30 00:32:33;;;;;;;;;;;;;;;6.43;100.00;100927.31;5035804;28;19921;-79
2023/12/30 00:34:59;;;;;;;;;;;;;;;6.38;100.00;100914.28;5045645;28;19920;-80
2023/12/30 00:37:24;;;;;;;;;;;;;;;6.35;100.00;100921.16;5070928;28;19920;-80
2023/12/30 00:39:49;;;;;;;;;;;;;;;6.33;100.00;100926.38;5031252;28;19932;-78
2023/12/30 00:42:15;;;;;;;;;;;;;;;6.30;100.00;100922.88;5067799;28;19925;-80
2023/12/30 00:44:40;;;;;;;;;;;;;;;6.30;100.00;100920.28;5048326;28;19927;-80
2023/12/30 00:47:08;;;;;;;;;;;;;;;6.26;100.00;100918.50;5053374;28;19970;-80
2023/12/30 00:49:33;;;;;;;;;;;;;;;6.26;100.00;100923.72;5069701;28;19920;-78
2023/12/30 00:52:00;;;;;;;;;;;;;;;6.23;100.00;100930.66;5045349;28;19916;-79
2023/12/30 00:54:25;;;;;;;;;;;;;;;6.20;100.00;100912.41;5043360;28;19962;-79
2023/12/30 00:56:50;;;;;;;;;;;;;;;6.18;100.00;100919.34;5071835;28;19991;-79
2023/12/30 00:59:16;;;;;;;;;;;;;;;6.15;100.00;100928.81;5051551;28;20014;-80
2023/12/30 01:01:41;;;;;;;;;;;;;;;6.14;100.00;100927.09;5071078;28;19962;-79
2023/12/30 01:04:07;;;;;;;;;;;;;;;6.10;100.00;100939.19;5036973;28;19993;-80
2023/12/30 01:06:32;;;;;;;;;;;;;;;6.06;100.00;100943.53;5061703;28;19921;-80
2023/12/30 01:08:58;;;;;;;;;;;;;;;6.02;100.00;100944.34;5051965;28;19974;-80
2023/12/30 01:11:23;;;;;;;;;;;;;;;6.07;100.00;100942.66;5070868;28;19928;-80
2023/12/30 01:13:49;;;;;;;;;;;;;;;6.04;100.00;100945.22;5038931;28;19952;-80
2023/12/30 01:16:16;;;;;;;;;;;;;;;6.04;100.00;100942.63;5054316;28;19924;-79
2023/12/30 01:18:41;;;;;;;;;;;;;;;6.10;100.00;100948.75;5067170;28;19923;-79
2023/12/30 01:21:07;;;;;;;;;;;;;;;6.14;100.00;100947.91;5051775;28;19924;-80
2023/12/30 01:23:32;;;;;;;;;;;;;;;6.10;100.00;100957.41;5045501;28;20001;-80
2023/12/30 01:25:57;;;;;;;;;;;;;;;6.10;100.00;100956.56;5038719;28;20058;-80
2023/12/30 01:28:23;;;;;;;;;;;;;;;6.10;100.00;100962.63;5076618;28;19925;-80
2023/12/30 01:30:48;;;;;;;;;;;;;;;6.10;100.00;100966.97;5049537;28;19927;-79
2023/12/30 01:33:13;;;;;;;;;;;;;;;6.15;100.00;100968.75;5033884;28;19927;-79
2023/12/30 01:35:42;;;;;;;;;;;;;;;6.13;100.00;100966.97;5055033;28;19925;-80
2023/12/30 01:38:07;;;;;;;;;;;;;;;6.13;100.00;100972.19;5049735;28;19960;-79
2023/12/30 01:40:35;;;;;;;;;;;;;;;6.15;100.00;100960.06;5019599;28;19952;-79
2023/12/30 01:43:02;;;;;;;;;;;;;;;6.15;100.00;100965.25;5021856;28;19925;-80
2023/12/30 01:45:28;;;;;;;;;;;;;;;6.14;100.00;100971.34;5025165;28;20395;-80
2023/12/30 01:47:54;;;;;;;;;;;;;;;6.14;100.00;100968.75;5018844;28;19932;-79
2023/12/30 01:50:21;;;;;;;;;;;;;;;6.11;100.00;100972.19;5033741;28;19992;-80
2023/12/30 01:52:47;;;;;;;;;;;;;;;6.09;100.00;100975.63;5031955;28;20400;-80
2023/12/30 01:55:13;;;;;;;;;;;;;;;6.06;100.00;100981.66;5026460;28;19964;-80
2023/12/30 01:57:39;;;;;;;;;;;;;;;6.01;100.00;100981.63;5033672;28;19921;-80
2023/12/30 02:00:04;;;;;;;;;;;;;;;5.98;100.00;100989.41;5033259;28;20548;-80
2023/12/30 02:02:30;;;;;;;;;;;;;;;5.99;100.00;100992.88;5036260;28;19917;-79
2023/12/30 02:04:55;;;;;;;;;;;;;;;5.98;100.00;100999.81;5022911;28;20299;-78
2023/12/30 02:07:20;;;;;;;;;;;;;;;5.98;100.00;100994.59;5049709;28;19952;-80
2023/12/30 02:09:46;;;;;;;;;;;;;;;5.99;100.00;101000.66;5016530;28;19925;-81
2023/12/30 02:12:11;;;;;;;;;;;;;;;5.99;100.00;101001.56;5033254;28;20030;-80
2023/12/30 02:14:37;;;;;;;;;;;;;;;6.02;100.00;101001.59;5016398;28;20349;-80
2023/12/30 02:17:02;;;;;;;;;;;;;;;6.00;100.00;101002.44;5014512;28;20314;-80
2023/12/30 02:19:28;;;;;;;;;;;;;;;5.99;100.00;101008.47;5045203;28;19921;-80
2023/12/30 02:21:53;;;;;;;;;;;;;;;5.95;100.00;101006.66;5063431;28;19925;-80
2023/12/30 02:24:19;;;;;;;;;;;;;;;5.93;100.00;101001.44;5051984;28;19921;-80
2023/12/30 02:26:44;;;;;;;;;;;;;;;5.92;100.00;101004.03;5033684;28;19947;-81
2023/12/30 02:29:09;;;;;;;;;;;;;;;5.99;100.00;101001.56;5029819;28;19929;-79
2023/12/30 02:31:36;;;;;;;;;;;;;;;5.96;100.00;101013.63;5050444;28;19925;-79
2023/12/30 02:34:02;;;;;;;;;;;;;;;5.94;100.00;101012.75;5045693;28;19932;-80
2023/12/30 02:36:27;;;;;;;;;;;;;;;5.93;100.00;101017.06;5060222;28;20311;-80
2023/12/30 02:38:53;;;;;;;;;;;;;;;5.94;100.00;101017.94;5067243;28;20366;-80
2023/12/30 02:41:18;;;;;;;;;;;;;;;5.94;100.00;101024.00;5050491;28;19916;-80
2023/12/30 02:43:52;;;;;;;;;;;;;;;5.97;100.00;101023.19;5068289;28;19924;-80
2023/12/30 02:46:18;;;;;;;;;;;;;;;5.97;100.00;101028.38;5049191;28;19917;-79
2023/12/30 02:48:43;;;;;;;;;;;;;;;5.96;100.00;101027.50;5042618;28;20296;-80
2023/12/30 02:51:13;;;;;;;;;;;;;;;5.97;100.00;101020.56;5049556;28;19942;-81
2023/12/30 02:53:38;;;;;;;;;;;;;;;5.97;100.00;101021.47;5049319;28;19912;-80
2023/12/30 02:56:04;;;;;;;;;;;;;;;5.98;100.00;101027.56;5069786;28;19917;-80
2023/12/30 02:58:29;;;;;;;;;;;;;;;5.98;100.00;101020.63;5069031;28;20522;-79
2023/12/30 03:00:55;;;;;;;;;;;;;;;5.99;100.00;101021.47;5069671;28;19924;-80
2023/12/30 03:03:20;;;;;;;;;;;;;;;6.00;100.00;101028.44;5041019;28;19943;-80
2023/12/30 03:05:46;;;;;;;;;;;;;;;6.00;100.00;101033.63;5047167;28;20257;-79
2023/12/30 03:08:15;;;;;;;;;;;;;;;6.02;100.00;101031.91;5051334;28;20363;-79
2023/12/30 03:10:40;;;;;;;;;;;;;;;6.05;100.00;101021.56;5067691;28;19942;-79
2023/12/30 03:13:05;;;;;;;;;;;;;;;6.00;100.00;101031.91;5028041;28;20328;-80
2023/12/30 03:15:31;;;;;;;;;;;;;;;5.96;100.00;101032.72;5035084;28;20269;-80
2023/12/30 03:17:59;;;;;;;;;;;;;;;5.95;100.00;101035.28;5035530;28;20308;-79
2023/12/30 03:20:25;;;;;;;;;;;;;;;5.96;100.00;101032.72;5067181;28;19923;-80
2023/12/30 03:22:50;;;;;;;;;;;;;;;5.94;100.00;101034.41;5050949;28;19921;-79
2023/12/30 03:25:15;;;;;;;;;;;;;;;5.90;100.00;101041.34;5068952;28;20213;-80
2023/12/30 03:27:44;;;;;;;;;;;;;;;5.89;100.00;101042.19;5070825;28;19986;-80
2023/12/30 03:30:09;;;;;;;;;;;;;;;5.87;100.00;101038.66;5067902;28;20078;-80
2023/12/30 03:32:35;;;;;;;;;;;;;;;5.85;100.00;101044.72;5053062;28;19925;-80
2023/12/30 03:35:00;;;;;;;;;;;;;;;5.84;100.00;101036.03;5052622;28;19928;-80
2023/12/30 03:37:26;;;;;;;;;;;;;;;5.85;100.00;101031.72;5055782;28;19923;-79
2023/12/30 03:39:51;;;;;;;;;;;;;;;5.80;100.00;101028.19;5068593;28;20400;-80
2023/12/30 03:42:17;;;;;;;;;;;;;;;5.77;100.00;101031.63;5059626;28;20288;-80
2023/12/30 03:44:42;;;;;;;;;;;;;;;5.73;100.00;101033.34;5040377;28;19928;-80
2023/12/30 03:47:07;;;;;;;;;;;;;;;5.71;100.00;101035.03;5069228;28;19954;-80
2023/12/30 03:49:33;;;;;;;;;;;;;;;5.70;100.00;101045.41;5050662;28;19970;-80
2023/12/30 03:51:59;;;;;;;;;;;;;;;5.70;100.00;101056.72;5068442;28;20262;-81
2023/12/30 03:54:24;;;;;;;;;;;;;;;5.70;100.00;101058.41;5051463;28;19921;-80
2023/12/30 03:56:49;;;;;;;;;;;;;;;5.70;100.00;101055.81;5071766;28;20331;-80
2023/12/30 03:59:14;;;;;;;;;;;;;;;5.68;100.00;101061.00;5053804;28;19974;-80
2023/12/30 04:01:43;;;;;;;;;;;;;;;5.67;100.00;101051.44;5049740;28;20296;-80
2023/12/30 04:04:11;;;;;;;;;;;;;;;5.68;100.00;101047.13;5073080;28;20410;-81
2023/12/30 04:06:36;;;;;;;;;;;;;;;5.67;100.00;101050.59;5035834;28;19952;-79
2023/12/30 04:09:01;;;;;;;;;;;;;;;5.65;100.00;101052.31;5051007;28;20380;-80
2023/12/30 04:11:27;;;;;;;;;;;;;;;5.62;100.00;101050.53;5046269;28;19975;-80
2023/12/30 04:13:52;;;;;;;;;;;;;;;5.60;100.00;101048.75;5036697;28;19963;-80
2023/12/30 04:16:17;;;;;;;;;;;;;;;5.57;100.00;101054.78;5055677;28;20015;-80
2023/12/30 04:18:43;;;;;;;;;;;;;;;5.54;100.00;101058.22;5054836;28;19978;-80
2023/12/30 04:21:08;;;;;;;;;;;;;;;5.50;100.00;101064.28;5070068;28;19924;-80
2023/12/30 04:23:36;;;;;;;;;;;;;;;5.49;100.00;101054.72;5054806;28;19917;-81
2023/12/30 04:26:02;;;;;;;;;;;;;;;5.47;100.00;101055.53;5065857;28;20319;-80
2023/12/30 04:28:27;;;;;;;;;;;;;;;5.46;100.00;101052.09;5049667;28;19932;-80
2023/12/30 04:30:52;;;;;;;;;;;;;;;5.44;100.00;101058.09;5071244;28;19948;-80
2023/12/30 04:33:18;;;;;;;;;;;;;;;5.39;100.00;101055.47;5081790;28;20266;-80
2023/12/30 04:35:44;;;;;;;;;;;;;;;5.34;100.00;101058.00;5041445;28;19932;-80
2023/12/30 04:38:11;;;;;;;;;;;;;;;5.31;100.00;101067.47;5046689;28;19920;-81
2023/12/30 04:40:37;;;;;;;;;;;;;;;5.25;100.00;101063.06;5049808;28;20352;-80
2023/12/30 04:43:02;;;;;;;;;;;;;;;5.22;100.00;101065.63;5051249;28;19928;-80
2023/12/30 04:45:28;;;;;;;;;;;;;;;5.21;100.00;101071.66;5062687;28;20368;-81
2023/12/30 04:47:53;;;;;;;;;;;;;;;5.15;100.00;101067.25;5037313;28;19921;-81
2023/12/30 04:50:18;;;;;;;;;;;;;;;5.14;100.00;101075.91;5070706;28;19920;-80
2023/12/30 04:52:44;;;;;;;;;;;;;;;5.10;100.00;101076.72;5068416;28;19921;-80
2023/12/30 04:55:10;;;;;;;;;;;;;;;5.10;100.00;101081.03;5047123;28;19936;-80
2023/12/30 04:57:39;;;;;;;;;;;;;;;5.07;100.00;101081.88;5047252;28;19982;-80
2023/12/30 05:00:04;;;;;;;;;;;;;;;5.05;100.00;101080.09;5068545;28;19935;-81
2023/12/30 05:02:30;;;;;;;;;;;;;;;5.06;100.00;101080.13;5048835;28;20375;-80
2023/12/30 05:04:55;;;;;;;;;;;;;;;5.09;100.00;101082.75;5070401;28;19926;-81
2023/12/30 05:07:23;;;;;;;;;;;;;;;5.13;100.00;101089.75;5025049;28;19944;-79
2023/12/30 05:09:50;;;;;;;;;;;;;;;5.15;100.00;101082.84;5038874;28;19952;-80
2023/12/30 05:12:15;;;;;;;;;;;;;;;5.17;100.00;101085.44;5069812;28;19964;-80
2023/12/30 05:14:40;;;;;;;;;;;;;;;5.16;100.00;101084.59;5050434;28;19952;-81
2023/12/30 05:17:06;;;;;;;;;;;;;;;5.16;100.00;101102.78;5041042;28;20339;-80
2023/12/30 05:19:31;;;;;;;;;;;;;;;5.17;100.00;101095.84;5058733;28;19944;-80
2023/12/30 05:21:56;;;;;;;;;;;;;;;5.16;100.00;101101.91;5041479;28;19917;-80
2023/12/30 05:24:22;;;;;;;;;;;;;;;5.15;100.00;101098.41;5033965;28;19916;-80
2023/12/30 05:26:48;;;;;;;;;;;;;;;5.17;100.00;101103.63;5070507;28;19974;-80
2023/12/30 05:29:14;;;;;;;;;;;;;;;5.18;100.00;101103.66;5040325;28;20048;-81
2023/12/30 05:31:39;;;;;;;;;;;;;;;5.21;100.00;101108.03;5053946;28;19952;-80
2023/12/30 05:34:08;;;;;;;;;;;;;;;5.25;100.00;101108.97;5058440;28;19921;-80
2023/12/30 05:36:35;;;;;;;;;;;;;;;5.28;100.00;101112.47;5036106;28;19924;-80
2023/12/30 05:39:01;;;;;;;;;;;;;;;5.25;100.00;101108.97;5052602;28;19932;-81
2023/12/30 05:41:26;;;;;;;;;;;;;;;5.23;100.00;101114.13;5070158;28;19920;-81
2023/12/30 05:43:51;;;;;;;;;;;;;;;5.23;100.00;101115.84;5070381;28;19920;-80
2023/12/30 05:46:19;;;;;;;;;;;;;;;5.21;100.00;101118.44;5051491;28;20025;-80
2023/12/30 05:48:49;;;;;;;;;;;;;;;5.18;100.00;101119.25;5066318;28;19931;-80
2023/12/30 05:51:14;;;;;;;;;;;;;;;5.15;100.00;101118.34;5054027;28;19931;-80
2023/12/30 05:53:40;;;;;;;;;;;;;;;5.14;100.00;101116.59;5052539;28;19924;-81
2023/12/30 05:56:06;;;;;;;;;;;;;;;5.13;100.00;101115.72;5070067;28;19916;-80
2023/12/30 05:58:31;;;;;;;;;;;;;;;5.10;100.00;101123.47;5047645;28;20000;-79
2023/12/30 06:00:57;;;;;;;;;;;;;;;5.11;100.00;101122.59;5053517;28;19931;-79
2023/12/30 06:03:23;;;;;;;;;;;;;;;5.09;100.00;101126.91;5070930;28;19917;-81
2023/12/30 06:05:48;;;;;;;;;;;;;;;5.09;100.00;101121.72;5038905;28;19921;-80
2023/12/30 06:08:13;;;;;;;;;;;;;;;5.07;100.00;101120.84;5074424;28;20288;-80
2023/12/30 06:10:39;;;;;;;;;;;;;;;5.05;100.00;101124.25;5082102;28;20241;-80
2023/12/30 06:13:04;;;;;;;;;;;;;;;5.03;100.00;101130.28;5043315;28;19917;-80
2023/12/30 06:15:29;;;;;;;;;;;;;;;5.01;100.00;101131.09;5074538;28;20330;-80
2023/12/30 06:17:55;;;;;;;;;;;;;;;4.97;100.00;101129.31;5063475;28;19970;-80
2023/12/30 06:20:21;;;;;;;;;;;;;;;5.00;100.00;101137.19;5052600;28;19924;-81
2023/12/30 06:22:46;;;;;;;;;;;;;;;4.95;100.00;101133.63;5036718;28;19946;-79
2023/12/30 06:25:12;;;;;;;;;;;;;;;4.94;100.00;101137.06;5033895;28;19920;-80
2023/12/30 06:27:37;;;;;;;;;;;;;;;4.92;100.00;101147.41;5052398;28;19951;-81
2023/12/30 06:30:03;;;;;;;;;;;;;;;4.89;100.00;101142.19;5046904;28;19960;-80
2023/12/30 06:32:29;;;;;;;;;;;;;;;4.86;100.00;101148.19;5064071;28;19917;-80
2023/12/30 06:34:54;;;;;;;;;;;;;;;4.86;100.00;101150.78;5045580;28;19932;-80
2023/12/30 06:37:20;;;;;;;;;;;;;;;4.84;100.00;101155.09;5035915;28;19929;-80
2023/12/30 06:39:45;;;;;;;;;;;;;;;4.84;100.00;101159.41;5029371;28;19928;-80
2023/12/30 06:42:10;;;;;;;;;;;;;;;4.83;100.00;101161.13;5046775;28;19921;-81
2023/12/30 06:44:36;;;;;;;;;;;;;;;4.82;100.00;101153.31;5019467;28;19979;-80
2023/12/30 06:47:05;;;;;;;;;;;;;;;4.82;100.00;101154.19;5049177;28;19920;-80
2023/12/30 06:49:30;;;;;;;;;;;;;;;4.79;100.00;101150.66;5046289;28;19921;-80
2023/12/30 06:51:55;;;;;;;;;;;;;;;4.77;100.00;101153.25;5049327;28;20506;-81
2023/12/30 06:54:21;;;;;;;;;;;;;;;4.78;100.00;101152.38;5034314;28;19923;-80
2023/12/30 06:56:47;;;;;;;;;;;;;;;4.79;100.00;101150.66;5036788;28;19947;-80
2023/12/30 06:59:13;;;;;;;;;;;;;;;4.78;100.00;101149.78;5036265;28;20028;-80
2023/12/30 07:01:40;;;;;;;;;;;;;;;4.80;100.00;101157.63;5055172;28;19948;-79
2023/12/30 07:04:06;;;;;;;;;;;;;;;4.78;100.00;101160.16;5039691;28;19928;-80
2023/12/30 07:06:31;;;;;;;;;;;;;;;4.78;100.00;101154.09;5037799;28;19932;-80
2023/12/30 07:08:56;;;;;;;;;;;;;;;4.80;100.00;101155.88;5038943;28;20453;-79
2023/12/30 07:11:23;;;;;;;;;;;;;;;4.79;100.00;101161.91;5073822;28;19922;-80
2023/12/30 07:13:48;;;;;;;;;;;;;;;4.78;100.00;101159.31;5039615;28;19945;-80
2023/12/30 07:16:16;;;;;;;;;;;;;;;4.77;100.00;101165.34;5040403;28;19921;-80
2023/12/30 07:18:42;;;;;;;;;;;;;;;4.81;100.00;101156.75;5056053;28;19986;-79
2023/12/30 07:21:07;;;;;;;;;;;;;;;4.84;100.00;101165.47;5034150;28;20300;-80
2023/12/30 07:23:33;;;;;;;;;;;;;;;4.89;100.00;101165.56;5070472;28;20431;-80
2023/12/30 07:25:58;;;;;;;;;;;;;;;4.93;100.00;101164.75;5071021;28;20284;-80
2023/12/30 07:28:23;;;;;;;;;;;;;;;4.96;100.00;101169.13;5073888;28;19924;-80
2023/12/30 07:30:50;;;;;;;;;;;;;;;4.96;100.00;101163.94;5053996;28;19974;-80
2023/12/30 07:33:16;;;;;;;;;;;;;;;4.96;100.00;101161.34;5044814;28;19925;-80
2023/12/30 07:35:42;;;;;;;;;;;;;;;4.94;100.00;101170.81;5083997;28;19930;-80
2023/12/30 07:38:07;;;;;;;;;;;;;;;4.91;100.00;101179.44;5039620;28;20373;-79
2023/12/30 07:40:33;;;;;;;;;;;;;;;4.92;100.00;101175.13;5039381;28;20288;-80
2023/12/30 07:42:58;;;;;;;;;;;;;;;4.93;100.00;101176.84;5039011;28;20376;-80
2023/12/30 07:45:23;;;;;;;;;;;;;;;4.89;100.00;101167.28;5088344;28;19970;-80
2023/12/30 07:47:49;;;;;;;;;;;;;;;4.90;100.00;101171.63;5056151;28;20544;-79
2023/12/30 07:50:15;;;;;;;;;;;;;;;4.94;100.00;101183.81;5072469;28;19940;-80
2023/12/30 07:52:40;;;;;;;;;;;;;;;4.95;100.00;101186.41;5061913;28;20594;-80
2023/12/30 07:55:06;;;;;;;;;;;;;;;4.98;100.00;101193.41;5044168;28;19920;-80
2023/12/30 07:57:31;;;;;;;;;;;;;;;5.01;100.00;101199.53;5072559;28;20444;-80
2023/12/30 07:59:56;;;;;;;;;;;;;;;5.03;100.00;101194.38;5072572;28;19917;-79
2023/12/30 08:02:23;;;;;;;;;;;;;;;5.09;100.00;101196.19;5053684;28;20371;-80
2023/12/30 08:04:48;;;;;;;;;;;;;;;5.14;100.00;101204.91;5055425;28;19966;-80
2023/12/30 08:07:14;;;;;;;;;;;;;;;5.16;100.00;101209.28;5072894;28;19913;-80
2023/12/30 08:09:39;;;;;;;;;;;;;;;5.20;100.00;101208.50;5070916;28;19951;-79
2023/12/30 08:12:05;;;;;;;;;;;;;;;5.26;100.00;101209.44;5055819;28;20352;-79
2023/12/30 08:14:30;;;;;;;;;;;;;;;5.31;100.00;101213.00;5054070;28;19921;-80
2023/12/30 08:16:58;;;;;;;;;;;;;;;5.37;100.00;101223.47;5072747;28;19913;-80
2023/12/30 08:19:24;;;;;;;;;;;;;;;5.39;100.00;101226.97;5082736;28;19931;-79
2023/12/30 08:21:49;;;;;;;;;;;;;;;5.44;100.00;101217.50;5052588;28;19920;-80
2023/12/30 08:24:16;;;;;;;;;;;;;;;5.46;100.00;101218.44;5054403;28;19954;-80
2023/12/30 08:26:41;;;;;;;;;;;;;;;5.49;100.00;101221.06;5087440;28;20328;-80
2023/12/30 08:29:08;;;;;;;;;;;;;;;5.52;100.00;101222.84;5073612;28;19924;-79
2023/12/30 08:31:37;;;;;;;;;;;;;;;5.57;100.00;101234.19;5072746;28;20357;-80
2023/12/30 08:34:03;;;;;;;;;;;;;;;5.59;100.00;101223.78;5055815;28;19917;-80
2023/12/30 08:36:29;;;;;;;;;;;;;;;5.61;100.00;101222.13;5085434;28;19978;-80
2023/12/30 08:38:57;;;;;;;;;;;;;;;5.67;100.00;101222.19;5060584;28;20346;-80
2023/12/30 08:41:24;;;;;;;;;;;;;;;5.69;100.00;101220.50;5035565;28;19920;-80
2023/12/30 08:43:53;;;;;;;;;;;;;;;5.78;100.00;101225.81;5035352;28;19927;-80
2023/12/30 08:46:18;;;;;;;;;;;;;;;5.79;100.00;101224.97;5073587;28;19916;-80
2023/12/30 08:48:43;;;;;;;;;;;;;;;5.81;100.00;101215.47;5042258;28;19947;-79
2023/12/30 08:51:11;;;;;;;;;;;;;;;5.86;100.00;101211.22;5037920;28;19920;-80
2023/12/30 08:53:36;;;;;;;;;;;;;;;5.88;100.00;101222.50;5086494;28;19927;-80
2023/12/30 08:56:02;;;;;;;;;;;;;;;5.89;100.00;101226.00;5045215;28;19920;-80
2023/12/30 08:58:27;;;;;;;;;;;;;;;5.94;100.00;101231.25;5054522;28;19917;-79
2023/12/30 09:00:53;;;;;;;;;;;;;;;5.97;100.00;101233.88;5071499;28;19913;-80
2023/12/30 09:03:18;;;;;;;;;;;;;;;6.02;100.00;101229.63;5054602;28;20006;-80
2023/12/30 09:05:44;;;;;;;;;;;;;;;6.04;100.00;101233.16;5071413;28;20007;-80
2023/12/30 09:08:10;;;;;;;;;;;;;;;6.10;100.00;101235.81;5054195;28;19920;-80
2023/12/30 09:10:35;;;;;;;;;;;;;;;6.13;100.00;101232.38;5070216;28;20387;-80
2023/12/30 09:13:00;;;;;;;;;;;;;;;6.18;100.00;101230.72;5069678;28;19934;-80
2023/12/30 09:15:26;;;;;;;;;;;;;;;6.22;100.00;101228.19;5054676;28;19956;-79
2023/12/30 09:17:52;;;;;;;;;;;;;;;6.28;100.00;101244.72;5054610;28;19928;-80
2023/12/30 09:20:18;;;;;;;;;;;;;;;6.34;100.00;101248.28;5071074;22;19921;-79
2023/12/30 09:22:44;;;;;;;;;;;;;;;6.39;100.00;101253.53;5071690;28;19984;-72
2023/12/30 09:25:09;;;;;;;;;;;;;;;6.44;100.00;101257.06;5133146;22;19938;-79
2023/12/30 09:27:35;;;;;;;;;;;;;;;6.49;100.00;101252.78;5077548;28;19923;-80
2023/12/30 09:30:00;;;;;;;;;;;;;;;6.52;100.00;101255.44;5086410;28;19939;-81
2023/12/30 09:32:25;;;;;;;;;;;;;;;6.57;100.00;101258.09;5107809;28;19915;-80
2023/12/30 09:34:51;;;;;;;;;;;;;;;6.59;100.00;101261.56;5109051;28;19924;-80
2023/12/30 09:37:18;;;;;;;;;;;;;;;6.62;100.00;101261.59;5083446;28;20124;-81
2023/12/30 09:39:43;;;;;;;;;;;;;;;6.66;100.00;101257.31;5100648;27;19923;-81
2023/12/30 09:42:10;;;;;;;;;;;;;;;6.69;100.00;101266.03;5094463;28;19915;-81
2023/12/30 09:44:36;;;;;;;;;;;;;;;6.74;100.00;101266.09;5092929;28;19930;-80
2023/12/30 09:47:07;;;;;;;;;;;;;;;6.79;100.00;101256.56;5109374;28;19920;-80
2023/12/30 09:49:34;;;;;;;;;;;;;;;6.87;100.00;101260.16;5093308;28;19920;-76
2023/12/30 09:52:02;;;;;;;;;;;;;;;6.90;100.00;101260.16;5109310;28;20244;-81
2023/12/30 09:54:28;;;;;;;;;;;;;;;6.93;100.00;101272.38;5141513;22;19983;-72
2023/12/30 09:56:53;;;;;;;;;;;;;;;6.98;100.00;101262.84;5073771;28;19994;-72
2023/12/30 09:59:19;;;;;;;;;;;;;;;6.99;100.00;101259.38;5083728;28;20374;-72
2023/12/30 10:01:44;;;;;;;;;;;;;;;7.05;100.00;101274.22;5078450;27;19930;-71
2023/12/30 10:04:10;;;;;;;;;;;;;;;7.09;100.00;101270.78;5079819;28;19966;-72
2023/12/30 10:06:36;;;;;;;;;;;;;;;7.12;100.00;101265.59;5073045;28;19927;-71
2023/12/30 10:09:02;;;;;;;;;;;;;;;7.17;100.00;101260.41;5239439;22;19978;-80
2023/12/30 10:11:27;;;;;;;;;;;;;;;7.22;100.00;101270.03;5077970;28;19924;-80
2023/12/30 10:13:54;;;;;;;;;;;;;;;7.22;100.00;101264.81;5042199;28;19920;-80
2023/12/30 10:16:19;;;;;;;;;;;;;;;7.23;100.00;101263.97;5073423;28;19920;-81
2023/12/30 10:18:45;;;;;;;;;;;;;;;7.26;100.00;101263.13;5076867;28;20000;-80
2023/12/30 10:21:10;;;;;;;;;;;;;;;7.28;100.00;101270.09;5077164;28;20259;-81
2023/12/30 10:23:35;;;;;;;;;;;;;;;7.31;100.00;101270.97;5118814;22;20402;-71
2023/12/30 10:26:02;;;;;;;;;;;;;;;7.44;100.00;101268.50;5112003;22;20043;-72
2023/12/30 10:28:30;;;;;;;;;;;;;;;7.41;100.00;101272.78;5070004;28;19921;-80
2023/12/30 10:31:00;;;;;;;;;;;;;;;7.45;100.00;101275.44;5069979;28;19916;-80
2023/12/30 10:33:25;;;;;;;;;;;;;;;7.53;100.00;101266.78;5072867;28;19966;-80
2023/12/30 10:35:51;;;;;;;;;;;;;;;7.59;100.00;101272.06;5088383;28;19912;-79
2023/12/30 10:38:17;;;;;;;;;;;;;;;7.63;100.00;101279.94;5074164;28;19912;-79
2023/12/30 10:40:44;;;;;;;;;;;;;;;7.69;100.00;101284.31;5073356;28;19920;-80
2023/12/30 10:43:10;;;;;;;;;;;;;;;7.74;100.00;101280.03;5081831;28;19916;-79
2023/12/30 10:45:35;;;;;;;;;;;;;;;7.77;100.00;101267.00;5049328;28;19927;-80
2023/12/30 10:48:01;;;;;;;;;;;;;;;7.87;100.00;101278.34;5071902;28;20402;-80
2023/12/30 10:50:26;;;;;;;;;;;;;;;7.88;100.00;101280.09;5076752;28;19912;-80
2023/12/30 10:53:12;;;;;;;;;;;;;;;7.93;100.00;101278.41;5071493;28;20268;-79
2023/12/30 10:55:40;;;;;;;;;;;;;;;7.97;100.00;101274.94;5067692;28;19916;-80
2023/12/30 10:58:16;;;;;;;;;;;;;;;8.00;100.00;101274.06;5073673;28;19959;-81
2023/12/30 11:00:42;;;;;;;;;;;;;;;8.05;100.00;101271.50;5073732;28;19991;-79
2023/12/30 11:03:08;;;;;;;;;;;;;;;8.09;100.00;101273.28;5060325;28;20019;-79
2023/12/30 11:05:43;;;;;;;;;;;;;;;8.19;100.00;101255.88;5053409;28;19924;-80
2023/12/30 11:08:08;;;;;;;;;;;;;;;8.26;100.00;101245.50;5060530;28;19913;-80
2023/12/30 11:10:34;;;;;;;;;;;;;;;8.31;100.00;101249.00;5075172;28;19946;-81
2023/12/30 11:12:59;;;;;;;;;;;;;;;8.39;100.00;101250.75;5053838;28;19924;-80
2023/12/30 11:15:29;;;;;;;;;;;;;;;8.44;100.00;101238.59;5056439;28;19928;-79
2023/12/30 11:18:00;;;;;;;;;;;;;;;8.48;100.00;101235.16;5087077;28;19923;-80
2023/12/30 11:20:26;;;;;;;;;;;;;;;8.44;100.00;101231.66;5057328;28;19936;-80
2023/12/30 11:22:52;;;;;;;;;;;;;;;8.45;100.00;101236.03;5061412;28;20364;-80
2023/12/30 11:25:18;;;;;;;;;;;;;;;8.47;100.00;101234.28;5063680;28;19966;-81
2023/12/30 11:27:46;;;;;;;;;;;;;;;8.51;100.00;101229.09;5056372;28;20326;-71
2023/12/30 11:30:16;;;;;;;;;;;;;;;8.49;100.00;101226.44;5089408;28;19970;-72
2023/12/30 11:32:41;;;;;;;;;;;;;;;8.52;100.00;101223.88;5020146;28;19928;-80
2023/12/30 11:35:06;;;;;;;;;;;;;;;8.58;100.00;101213.44;5021180;28;19920;-70
2023/12/30 11:37:34;;;;;;;;;;;;;;;8.70;100.00;101209.97;5027148;28;19917;-79
2023/12/30 11:39:59;;;;;;;;;;;;;;;8.71;100.00;101216.06;5050250;28;19924;-71
2023/12/30 11:42:27;;;;;;;;;;;;;;;8.70;100.00;101206.50;5056112;28;19932;-71
2023/12/30 11:44:53;;;;;;;;;;;;;;;8.81;100.00;101202.16;5039328;28;19987;-72
2023/12/30 11:47:21;;;;;;;;;;;;;;;8.88;100.00;101203.00;5072140;28;20379;-71
2023/12/30 11:49:47;;;;;;;;;;;;;;;8.93;100.00;101199.53;5085121;28;19912;-80
2023/12/30 11:52:13;;;;;;;;;;;;;;;8.97;100.00;101203.91;5059756;28;20287;-79
2023/12/30 11:54:39;;;;;;;;;;;;;;;9.00;100.00;101197.81;5052009;28;20326;-72
2023/12/30 11:57:09;;;;;;;;;;;;;;;9.02;100.00;101193.44;5048868;28;20367;-71
2023/12/30 11:59:35;;;;;;;;;;;;;;;8.97;100.00;101182.13;5064572;28;19975;-79
2023/12/30 12:02:13;;;;;;;;;;;;;;;8.95;100.00;101187.34;5077289;28;19920;-81
2023/12/30 12:04:38;;;;;;;;;;;;;;;8.91;100.00;101183.00;5055234;28;19966;-80
2023/12/30 12:07:04;;;;;;;;;;;;;;;8.91;100.00;101180.38;5079609;28;19916;-81
2023/12/30 12:09:29;;;;;;;;;;;;;;;8.92;100.00;101176.91;5063860;28;19917;-71
2023/12/30 12:11:58;;;;;;;;;;;;;;;8.93;100.00;101170.78;5054799;28;20040;-80
2023/12/30 12:14:27;;;;;;;;;;;;;;;8.94;100.00;101166.44;5053664;28;19920;-80
2023/12/30 12:16:53;;;;;;;;;;;;;;;8.99;100.00;101164.69;5055784;28;19923;-80
2023/12/30 12:19:18;;;;;;;;;;;;;;;9.14;100.00;101169.06;5048491;28;19920;-71
2023/12/30 12:21:44;;;;;;;;;;;;;;;9.43;100.00;101163.78;5043345;28;20751;-81
2023/12/30 12:24:09;;;;;;;;;;;;;;;10.46;97.19;101159.91;5052762;28;19970;-79
2023/12/30 12:26:36;;;;;;;;;;;;;;;11.51;91.71;101171.31;5055141;28;19928;-71
2023/12/30 12:29:03;;;;;;;;;;;;;;;12.16;87.79;101160.06;5055147;28;19924;-79